createdAt,value
2019-03-30T00:00:05.830Z,64.87
2019-03-30T00:02:37.807Z,64.86
2019-03-30T00:05:08.485Z,64.84
2019-03-30T00:07:38.907Z,64.85
2019-03-30T00:10:09.558Z,64.96
2019-03-30T00:12:39.937Z,65.10
2019-03-30T00:15:10.567Z,65.24
2019-03-30T00:17:40.956Z,65.28
2019-03-30T00:20:11.987Z,65.29
2019-03-30T00:22:42.483Z,65.37
2019-03-30T00:25:12.861Z,65.45
2019-03-30T00:27:43.613Z,65.35
2019-03-30T00:30:14.200Z,65.38
2019-03-30T00:32:44.577Z,65.34
2019-03-30T00:35:14.944Z,65.24
2019-03-30T00:37:45.554Z,65.15
2019-03-30T00:40:15.875Z,65.05
2019-03-30T00:42:46.223Z,65.00
2019-03-30T00:45:16.632Z,65.03
2019-03-30T00:47:47.177Z,65.08
2019-03-30T00:50:17.612Z,65.11
2019-03-30T00:52:48.270Z,65.13
2019-03-30T00:55:21.279Z,65.12
2019-03-30T00:57:51.589Z,65.21
2019-03-30T01:00:22.190Z,65.25
2019-03-30T01:02:52.669Z,65.32
2019-03-30T01:05:23.055Z,65.39
2019-03-30T01:07:53.519Z,65.44
2019-03-30T01:10:23.928Z,65.51
2019-03-30T01:12:54.420Z,65.52
2019-03-30T01:15:24.851Z,65.46
2019-03-30T01:17:55.319Z,65.50
2019-03-30T01:20:25.819Z,65.55
2019-03-30T01:22:56.223Z,65.58
2019-03-30T01:25:26.563Z,65.60
2019-03-30T01:27:56.902Z,65.66
2019-03-30T01:30:27.716Z,65.65
2019-03-30T01:32:58.041Z,65.59
2019-03-30T01:35:28.572Z,65.54
2019-03-30T01:37:59.247Z,65.59
2019-03-30T01:40:29.603Z,65.63
2019-03-30T01:43:00.169Z,65.70
2019-03-30T01:45:30.975Z,65.68
2019-03-30T01:48:01.475Z,65.71
2019-03-30T01:50:32.146Z,65.74
2019-03-30T01:53:02.493Z,65.75
2019-03-30T01:55:32.876Z,65.69
2019-03-30T01:58:03.700Z,65.83
2019-03-30T02:00:34.082Z,65.95
2019-03-30T02:03:04.447Z,66.01
2019-03-30T02:05:34.819Z,66.05
2019-03-30T02:08:06.189Z,65.99
2019-03-30T02:10:54.640Z,65.96
2019-03-30T02:13:25.003Z,66.03
2019-03-30T02:15:55.424Z,65.99
2019-03-30T02:18:25.770Z,65.96
2019-03-30T02:20:56.139Z,65.93
2019-03-30T02:23:26.530Z,65.90
2019-03-30T02:25:57.862Z,65.93
2019-03-30T02:28:28.684Z,66.00
2019-03-30T02:30:59.490Z,65.94
2019-03-30T02:33:30.117Z,65.94
2019-03-30T02:36:00.497Z,65.86
2019-03-30T02:38:30.967Z,65.86
2019-03-30T02:41:01.376Z,65.86
2019-03-30T02:43:31.719Z,65.91
2019-03-30T02:46:02.209Z,65.95
2019-03-30T02:48:32.558Z,66.04
2019-03-30T02:51:02.907Z,65.99
2019-03-30T02:53:33.426Z,65.93
2019-03-30T02:56:03.955Z,65.99
2019-03-30T02:58:34.655Z,66.01
2019-03-30T03:01:05.056Z,66.03
2019-03-30T03:03:35.512Z,66.15
2019-03-30T03:06:05.898Z,66.13
2019-03-30T03:08:36.306Z,66.10
2019-03-30T03:11:06.654Z,66.11
2019-03-30T03:13:36.954Z,66.18
2019-03-30T03:16:07.330Z,66.23
2019-03-30T03:18:37.719Z,66.30
2019-03-30T03:21:08.856Z,66.40
2019-03-30T03:23:39.378Z,66.44
2019-03-30T03:26:09.677Z,66.47
2019-03-30T03:28:40.129Z,66.56
2019-03-30T03:31:10.700Z,66.47
2019-03-30T03:33:41.563Z,66.39
2019-03-30T03:36:11.970Z,66.42
2019-03-30T03:38:42.298Z,66.42
2019-03-30T03:41:12.927Z,66.39
2019-03-30T03:43:43.815Z,66.42
2019-03-30T03:46:14.141Z,66.47
2019-03-30T03:48:44.665Z,66.60
2019-03-30T03:51:25.826Z,66.50
2019-03-30T03:53:48.896Z,66.56
2019-03-30T03:56:22.225Z,66.64
2019-03-30T03:58:54.770Z,66.61
2019-03-30T04:01:27.582Z,66.63
2019-03-30T04:03:59.944Z,66.64
2019-03-30T04:06:33.049Z,66.63
2019-03-30T04:09:06.043Z,66.54
2019-03-30T04:11:40.229Z,66.63
2019-03-30T04:14:13.984Z,66.66
2019-03-30T04:16:44.436Z,66.54
2019-03-30T04:19:14.825Z,66.64
2019-03-30T04:21:45.609Z,66.67
2019-03-30T04:24:15.952Z,66.72
2019-03-30T04:26:47.851Z,66.68
2019-03-30T04:29:18.280Z,66.65
2019-03-30T04:31:48.753Z,66.79
2019-03-30T04:34:19.480Z,66.78
2019-03-30T04:36:50.063Z,66.71
2019-03-30T04:39:20.437Z,66.74
2019-03-30T04:41:51.228Z,66.84
2019-03-30T04:44:21.662Z,66.79
2019-03-30T04:46:52.072Z,66.81
2019-03-30T04:49:22.452Z,66.77
2019-03-30T04:51:57.862Z,66.67
2019-03-30T04:54:25.140Z,66.64
2019-03-30T04:56:55.441Z,66.79
2019-03-30T04:59:25.965Z,66.72
2019-03-30T05:01:56.330Z,66.66
2019-03-30T05:04:26.649Z,66.66
2019-03-30T05:06:57.099Z,66.62
2019-03-30T05:09:27.468Z,66.70
2019-03-30T05:11:57.851Z,66.75
2019-03-30T05:14:28.619Z,66.74
2019-03-30T05:16:59.056Z,66.75
2019-03-30T05:19:29.544Z,66.76
2019-03-30T05:22:11.396Z,66.76
2019-03-30T05:24:32.619Z,66.76
2019-03-30T05:27:04.438Z,66.78
2019-03-30T05:29:34.748Z,66.81
2019-03-30T05:32:05.213Z,66.74
2019-03-30T05:34:35.497Z,66.69
2019-03-30T05:37:05.902Z,66.62
2019-03-30T05:39:36.277Z,66.58
2019-03-30T05:42:07.052Z,66.58
2019-03-30T05:44:37.720Z,66.63
2019-03-30T05:47:08.316Z,66.60
2019-03-30T05:49:38.694Z,66.56
2019-03-30T05:52:10.064Z,66.41
2019-03-30T05:54:40.386Z,66.46
2019-03-30T05:57:12.015Z,66.16
2019-03-30T05:59:42.338Z,65.31
2019-03-30T06:02:13.831Z,64.40
2019-03-30T06:04:44.286Z,63.60
2019-03-30T06:07:14.881Z,63.15
2019-03-30T06:09:45.269Z,63.10
2019-03-30T06:12:15.758Z,63.04
2019-03-30T06:14:46.288Z,62.97
2019-03-30T06:17:17.154Z,62.84
2019-03-30T06:19:47.650Z,62.74
2019-03-30T06:22:18.020Z,62.76
2019-03-30T06:24:48.323Z,62.72
2019-03-30T06:27:19.009Z,62.84
2019-03-30T06:30:21.340Z,62.77
2019-03-30T06:32:51.979Z,62.69
2019-03-30T06:35:22.754Z,62.70
2019-03-30T06:37:53.439Z,62.82
2019-03-30T06:40:24.744Z,62.94
2019-03-30T06:42:55.658Z,62.99
2019-03-30T06:45:25.969Z,63.04
2019-03-30T06:47:56.348Z,63.15
2019-03-30T06:50:27.090Z,63.23
2019-03-30T06:52:58.758Z,63.23
2019-03-30T06:55:29.945Z,63.09
2019-03-30T06:58:00.681Z,62.93
2019-03-30T07:00:36.229Z,62.84
2019-03-30T07:03:07.826Z,62.69
2019-03-30T07:05:43.678Z,62.55
2019-03-30T07:08:15.948Z,62.39
2019-03-30T07:10:46.893Z,62.31
2019-03-30T07:13:17.480Z,62.26
2019-03-30T07:15:49.313Z,62.29
2019-03-30T07:18:20.531Z,62.25
2019-03-30T07:20:50.971Z,62.22
2019-03-30T07:23:21.400Z,62.12
2019-03-30T07:25:51.913Z,61.93
2019-03-30T07:28:22.728Z,61.84
2019-03-30T07:30:53.571Z,61.73
2019-03-30T07:33:24.002Z,61.60
2019-03-30T07:35:54.477Z,61.59
2019-03-30T07:38:25.286Z,61.57
2019-03-30T07:40:55.678Z,61.39
2019-03-30T07:43:25.985Z,61.28
2019-03-30T07:45:56.353Z,61.23
2019-03-30T07:48:26.626Z,61.10
2019-03-30T07:50:57.270Z,61.03
2019-03-30T07:53:27.873Z,60.93
2019-03-30T07:56:08.279Z,60.88
2019-03-30T07:58:30.307Z,60.83
2019-03-30T08:01:00.826Z,60.61
2019-03-30T08:03:31.230Z,60.61
2019-03-30T08:06:01.836Z,60.50
2019-03-30T08:08:32.299Z,60.49
2019-03-30T08:11:02.606Z,60.33
2019-03-30T08:13:33.090Z,60.27
2019-03-30T08:16:03.886Z,60.12
2019-03-30T08:18:34.343Z,59.88
2019-03-30T08:21:04.942Z,59.65
2019-03-30T08:23:40.666Z,59.50
2019-03-30T08:26:07.315Z,59.46
2019-03-30T08:28:37.980Z,59.45
2019-03-30T08:31:08.446Z,59.31
2019-03-30T08:33:39.020Z,59.17
2019-03-30T08:36:09.773Z,59.10
2019-03-30T08:38:40.098Z,58.96
2019-03-30T08:41:10.948Z,58.87
2019-03-30T08:43:41.233Z,58.86
2019-03-30T08:46:11.880Z,58.79
2019-03-30T08:48:42.600Z,58.73
2019-03-30T08:51:13.360Z,58.61
2019-03-30T08:53:54.043Z,58.63
2019-03-30T08:56:16.083Z,58.49
2019-03-30T08:58:46.486Z,58.42
2019-03-30T09:01:16.892Z,58.40
2019-03-30T09:03:47.428Z,58.32
2019-03-30T09:06:17.911Z,58.15
2019-03-30T09:08:48.611Z,57.96
2019-03-30T09:11:19.044Z,57.76
2019-03-30T09:13:49.815Z,57.76
2019-03-30T09:16:20.514Z,57.88
2019-03-30T09:18:51.234Z,57.87
2019-03-30T09:21:21.557Z,57.68
2019-03-30T09:23:52.163Z,57.65
2019-03-30T09:26:22.980Z,57.63
2019-03-30T09:28:53.594Z,57.65
2019-03-30T09:31:23.947Z,57.49
2019-03-30T09:33:54.614Z,57.50
2019-03-30T09:36:25.595Z,57.35
2019-03-30T09:38:56.642Z,57.03
2019-03-30T09:41:28.362Z,56.81
2019-03-30T09:43:59.469Z,56.68
2019-03-30T09:46:31.254Z,56.27
2019-03-30T09:49:01.886Z,56.03
2019-03-30T09:51:32.824Z,56.22
2019-03-30T09:54:04.085Z,56.03
2019-03-30T09:56:34.842Z,56.13
2019-03-30T09:59:05.429Z,56.13
2019-03-30T10:01:36.296Z,56.13
2019-03-30T10:04:07.213Z,56.24
2019-03-30T10:06:37.909Z,56.17
2019-03-30T10:09:08.437Z,56.31
2019-03-30T10:11:38.971Z,56.35
2019-03-30T10:14:09.275Z,56.26
2019-03-30T10:16:40.062Z,56.45
2019-03-30T10:19:10.762Z,56.46
2019-03-30T10:21:41.470Z,55.98
2019-03-30T10:24:11.805Z,56.15
2019-03-30T10:26:42.234Z,55.95
2019-03-30T10:29:12.823Z,55.38
2019-03-30T10:31:43.210Z,55.18
2019-03-30T10:34:13.607Z,54.98
2019-03-30T10:36:43.973Z,55.18
2019-03-30T10:39:14.573Z,55.24
2019-03-30T10:41:45.705Z,55.38
2019-03-30T10:44:16.297Z,55.20
2019-03-30T10:46:47.215Z,55.17
2019-03-30T10:49:17.919Z,55.08
2019-03-30T10:51:48.598Z,54.96
2019-03-30T10:54:19.079Z,54.92
2019-03-30T10:56:49.781Z,54.58
2019-03-30T10:59:20.370Z,54.65
2019-03-30T11:01:50.694Z,54.70
2019-03-30T11:04:21.040Z,54.82
2019-03-30T11:06:52.338Z,54.78
2019-03-30T11:09:22.723Z,54.69
2019-03-30T11:11:53.130Z,54.31
2019-03-30T11:14:23.504Z,54.71
2019-03-30T11:16:54.189Z,55.08
2019-03-30T11:19:24.662Z,55.17
2019-03-30T11:21:55.272Z,55.01
2019-03-30T11:24:25.647Z,54.89
2019-03-30T11:26:56.281Z,54.56
2019-03-30T11:29:27.713Z,54.28
2019-03-30T11:31:58.129Z,53.95
2019-03-30T11:34:28.558Z,54.04
2019-03-30T11:36:58.868Z,53.70
2019-03-30T11:39:29.260Z,53.30
2019-03-30T11:41:59.694Z,53.44
2019-03-30T11:44:31.349Z,53.58
2019-03-30T11:47:02.026Z,53.80
2019-03-30T11:49:32.694Z,53.67
2019-03-30T11:52:03.337Z,53.60
2019-03-30T11:54:33.716Z,53.81
2019-03-30T11:57:04.064Z,54.01
2019-03-30T11:59:34.446Z,54.13
2019-03-30T12:02:05.011Z,53.77
2019-03-30T12:04:35.604Z,53.64
2019-03-30T12:07:06.056Z,53.30
2019-03-30T12:09:36.568Z,53.29
2019-03-30T12:12:07.147Z,53.03
2019-03-30T12:14:37.974Z,52.91
2019-03-30T12:17:08.555Z,52.77
2019-03-30T12:19:38.991Z,52.71
2019-03-30T12:22:09.476Z,52.98
2019-03-30T12:24:39.906Z,52.68
2019-03-30T12:27:10.369Z,52.88
2019-03-30T12:29:40.695Z,52.86
2019-03-30T12:32:11.427Z,52.11
2019-03-30T12:34:41.810Z,52.24
2019-03-30T12:37:12.606Z,52.36
2019-03-30T12:39:42.947Z,52.96
2019-03-30T12:42:13.241Z,53.33
2019-03-30T12:44:44.074Z,53.89
2019-03-30T12:47:14.500Z,53.87
2019-03-30T12:49:45.354Z,53.68
2019-03-30T12:52:16.001Z,53.59
2019-03-30T12:54:46.650Z,53.32
2019-03-30T12:57:16.945Z,53.50
2019-03-30T12:59:47.340Z,53.40
2019-03-30T13:02:17.680Z,53.48
2019-03-30T13:04:48.078Z,53.67
2019-03-30T13:07:18.449Z,53.42
2019-03-30T13:09:48.938Z,52.72
2019-03-30T13:12:19.361Z,52.50
2019-03-30T13:14:49.867Z,52.91
2019-03-30T13:17:20.357Z,53.00
2019-03-30T13:19:50.763Z,52.71
2019-03-30T13:22:21.469Z,52.58
2019-03-30T13:24:51.737Z,52.42
2019-03-30T13:27:22.148Z,52.48
2019-03-30T13:29:53.516Z,52.47
2019-03-30T13:32:24.258Z,52.29
2019-03-30T13:34:55.499Z,52.04
2019-03-30T13:37:25.868Z,51.53
2019-03-30T13:39:56.249Z,51.27
2019-03-30T13:42:26.645Z,51.50
2019-03-30T13:44:57.098Z,51.64
2019-03-30T13:47:27.758Z,51.94
2019-03-30T13:49:58.053Z,52.12
2019-03-30T13:52:28.509Z,52.17
2019-03-30T13:54:58.829Z,52.09
2019-03-30T13:57:29.152Z,51.96
2019-03-30T13:59:59.548Z,52.31
2019-03-30T14:02:30.045Z,52.62
2019-03-30T14:05:00.493Z,52.50
2019-03-30T14:07:30.957Z,52.68
2019-03-30T14:10:01.364Z,52.82
2019-03-30T14:12:32.068Z,52.00
2019-03-30T14:15:02.552Z,51.40
2019-03-30T14:17:33.126Z,51.16
2019-03-30T14:20:03.906Z,50.83
2019-03-30T14:22:34.577Z,51.14
2019-03-30T14:25:05.816Z,51.31
2019-03-30T14:27:36.120Z,51.26
2019-03-30T14:30:07.573Z,51.15
2019-03-30T14:32:37.989Z,51.47
2019-03-30T14:35:08.750Z,51.54
2019-03-30T14:37:39.144Z,51.80
2019-03-30T14:40:10.856Z,51.62
2019-03-30T14:42:41.149Z,51.57
2019-03-30T14:45:12.197Z,51.87
2019-03-30T14:47:42.690Z,52.11
2019-03-30T14:50:13.413Z,52.12
2019-03-30T14:52:44.044Z,51.23
2019-03-30T14:55:14.489Z,51.14
2019-03-30T14:57:44.856Z,51.07
2019-03-30T15:00:15.762Z,51.38
2019-03-30T15:02:46.220Z,51.48
2019-03-30T15:05:16.666Z,51.86
2019-03-30T15:07:46.980Z,52.30
2019-03-30T15:10:17.805Z,52.03
2019-03-30T15:12:52.198Z,51.87
2019-03-30T15:15:21.490Z,52.01
2019-03-30T15:17:52.105Z,44.23
2019-03-30T15:20:22.656Z,51.48
2019-03-30T15:22:53.048Z,51.58
2019-03-30T15:25:23.905Z,51.27
2019-03-30T15:27:54.630Z,50.93
2019-03-30T15:30:25.216Z,51.14
2019-03-30T15:32:55.486Z,51.39
2019-03-30T15:35:27.010Z,51.11
2019-03-30T15:37:57.337Z,51.09
2019-03-30T15:40:27.747Z,51.50
2019-03-30T15:42:58.189Z,51.77
2019-03-30T15:45:28.628Z,52.06
2019-03-30T15:47:59.256Z,51.90
2019-03-30T15:50:29.911Z,52.07
2019-03-30T15:53:00.240Z,52.06
2019-03-30T15:55:31.069Z,52.45
2019-03-30T15:58:01.505Z,52.92
2019-03-30T16:00:32.315Z,52.86
2019-03-30T16:03:02.809Z,53.33
2019-03-30T16:05:33.376Z,52.95
2019-03-30T16:08:03.958Z,52.91
2019-03-30T16:10:34.323Z,53.02
2019-03-30T16:13:04.752Z,52.99
2019-03-30T16:15:35.277Z,52.91
2019-03-30T16:18:06.316Z,52.84
2019-03-30T16:20:36.683Z,52.73
2019-03-30T16:23:07.136Z,52.99
2019-03-30T16:25:37.652Z,53.23
2019-03-30T16:28:08.359Z,53.42
2019-03-30T16:30:38.737Z,53.45
2019-03-30T16:33:09.132Z,53.30
2019-03-30T16:35:39.419Z,53.04
2019-03-30T16:38:09.790Z,53.25
2019-03-30T16:40:40.102Z,52.88
2019-03-30T16:43:10.514Z,52.92
2019-03-30T16:45:41.199Z,53.10
2019-03-30T16:48:14.614Z,52.87
2019-03-30T16:50:44.239Z,52.96
2019-03-30T16:53:14.526Z,52.78
2019-03-30T16:55:44.949Z,52.55
2019-03-30T16:58:15.240Z,52.45
2019-03-30T17:00:56.460Z,52.58
2019-03-30T17:03:18.907Z,52.44
2019-03-30T17:05:49.664Z,52.76
2019-03-30T17:08:20.564Z,53.08
2019-03-30T17:10:51.030Z,53.24
2019-03-30T17:13:22.698Z,53.24
2019-03-30T17:15:53.109Z,53.44
2019-03-30T17:18:23.554Z,53.28
2019-03-30T17:20:55.269Z,53.15
2019-03-30T17:23:26.074Z,53.28
2019-03-30T17:25:56.467Z,53.54
2019-03-30T17:28:27.485Z,53.65
2019-03-30T17:30:58.016Z,53.80
2019-03-30T17:33:28.535Z,53.75
2019-03-30T17:35:59.176Z,53.83
2019-03-30T17:38:29.538Z,53.76
2019-03-30T17:40:59.923Z,53.76
2019-03-30T17:43:32.321Z,53.78
2019-03-30T17:46:03.779Z,53.89
2019-03-30T17:48:34.521Z,53.82
2019-03-30T17:51:04.980Z,54.15
2019-03-30T17:53:39.198Z,54.26
2019-03-30T17:56:08.218Z,54.18
2019-03-30T17:58:38.788Z,54.22
2019-03-30T18:01:09.240Z,54.35
2019-03-30T18:03:42.445Z,54.48
2019-03-30T18:06:12.883Z,54.37
2019-03-30T18:08:43.891Z,54.40
2019-03-30T18:11:14.351Z,54.48
2019-03-30T18:13:44.892Z,54.71
2019-03-30T18:16:15.373Z,54.86
2019-03-30T18:18:45.724Z,54.88
2019-03-30T18:21:16.563Z,54.99
2019-03-30T18:23:47.585Z,55.12
2019-03-30T18:26:18.315Z,55.08
2019-03-30T18:28:49.148Z,55.21
2019-03-30T18:31:19.906Z,55.28
2019-03-30T18:33:50.702Z,55.33
2019-03-30T18:36:21.308Z,55.33
2019-03-30T18:38:52.261Z,55.41
2019-03-30T18:41:23.108Z,55.49
2019-03-30T18:43:53.759Z,55.54
2019-03-30T18:46:24.293Z,55.56
2019-03-30T18:48:54.894Z,55.57
2019-03-30T18:51:25.440Z,55.50
2019-03-30T18:53:55.906Z,55.41
2019-03-30T18:56:28.040Z,55.45
2019-03-30T18:58:58.659Z,55.49
2019-03-30T19:01:29.162Z,55.42
2019-03-30T19:03:59.793Z,55.40
2019-03-30T19:06:30.382Z,55.41
2019-03-30T19:09:00.880Z,55.30
2019-03-30T19:11:32.839Z,55.36
2019-03-30T19:14:03.266Z,55.38
2019-03-30T19:16:34.090Z,55.24
2019-03-30T19:19:04.629Z,55.23
2019-03-30T19:21:35.136Z,55.20
2019-03-30T19:24:06.311Z,55.08
2019-03-30T19:26:36.795Z,55.07
2019-03-30T19:29:07.505Z,55.03
2019-03-30T19:31:38.252Z,54.99
2019-03-30T19:34:08.622Z,54.95
2019-03-30T19:36:39.489Z,54.96
2019-03-30T19:39:10.605Z,55.09
2019-03-30T19:41:40.988Z,55.09
2019-03-30T19:44:11.938Z,55.08
2019-03-30T19:46:42.769Z,55.09
2019-03-30T19:49:13.522Z,55.06
2019-03-30T19:51:44.125Z,55.15
2019-03-30T19:54:14.585Z,55.17
2019-03-30T19:56:44.873Z,55.25
2019-03-30T19:59:15.234Z,55.18
2019-03-30T20:01:45.625Z,55.29
2019-03-30T20:04:16.153Z,55.23
2019-03-30T20:06:46.734Z,55.20
2019-03-30T20:09:20.597Z,55.29
2019-03-30T20:11:49.220Z,55.39
2019-03-30T20:14:19.602Z,55.32
2019-03-30T20:16:50.180Z,55.33
2019-03-30T20:19:20.482Z,55.22
2019-03-30T20:21:50.797Z,55.09
2019-03-30T20:24:21.313Z,54.78
2019-03-30T20:26:51.599Z,54.74
2019-03-30T20:29:25.966Z,54.46
2019-03-30T20:31:56.340Z,54.65
2019-03-30T20:34:26.758Z,54.87
2019-03-30T20:36:57.049Z,55.00
2019-03-30T20:39:27.347Z,55.05
2019-03-30T20:41:57.902Z,55.18
2019-03-30T20:44:28.480Z,55.44
2019-03-30T20:46:59.094Z,55.64
2019-03-30T20:49:29.391Z,55.93
2019-03-30T20:51:59.726Z,56.23
2019-03-30T20:54:30.031Z,56.44
2019-03-30T20:57:00.456Z,56.63
2019-03-30T20:59:39.840Z,56.83
2019-03-30T21:02:02.944Z,57.01
2019-03-30T21:04:33.263Z,57.24
2019-03-30T21:07:03.813Z,57.35
2019-03-30T21:09:34.113Z,57.41
2019-03-30T21:12:04.482Z,57.50
2019-03-30T21:14:34.927Z,57.63
2019-03-30T21:17:05.375Z,57.73
2019-03-30T21:19:36.026Z,57.77
2019-03-30T21:22:06.666Z,57.85
2019-03-30T21:24:37.302Z,57.99
2019-03-30T21:27:07.730Z,58.18
2019-03-30T21:29:38.181Z,58.32
2019-03-30T21:32:08.701Z,58.38
2019-03-30T21:34:39.059Z,58.42
2019-03-30T21:37:09.713Z,58.49
2019-03-30T21:39:40.148Z,58.54
2019-03-30T21:42:10.579Z,58.62
2019-03-30T21:44:41.228Z,58.72
2019-03-30T21:47:11.581Z,58.74
2019-03-30T21:49:42.163Z,58.71
2019-03-30T21:52:12.500Z,58.66
2019-03-30T21:54:42.900Z,58.72
2019-03-30T21:57:13.259Z,58.84
2019-03-30T21:59:43.860Z,58.92
2019-03-30T22:02:14.155Z,59.02
2019-03-30T22:04:44.730Z,59.15
2019-03-30T22:07:15.496Z,59.38
2019-03-30T22:09:46.048Z,59.36
2019-03-30T22:12:16.649Z,59.31
2019-03-30T22:14:47.010Z,59.30
2019-03-30T22:17:17.410Z,59.37
2019-03-30T22:19:47.731Z,59.31
2019-03-30T22:22:18.299Z,59.26
2019-03-30T22:24:48.691Z,59.29
2019-03-30T22:27:19.092Z,59.40
2019-03-30T22:29:49.495Z,59.40
2019-03-30T22:32:19.802Z,59.34
2019-03-30T22:34:50.115Z,59.31
2019-03-30T22:37:20.437Z,59.40
2019-03-30T22:39:51.150Z,59.56
2019-03-30T22:42:22.024Z,59.72
2019-03-30T22:44:53.375Z,59.92
2019-03-30T22:47:23.679Z,59.94
2019-03-30T22:49:54.013Z,60.02
2019-03-30T22:52:24.387Z,60.09
2019-03-30T22:54:54.731Z,60.17
2019-03-30T22:57:25.031Z,60.17
2019-03-30T22:59:55.764Z,60.25
2019-03-30T23:02:26.309Z,60.29
2019-03-30T23:04:57.089Z,60.42
2019-03-30T23:07:27.653Z,60.45
2019-03-30T23:09:58.292Z,60.49
2019-03-30T23:12:28.653Z,60.56
2019-03-30T23:14:58.959Z,60.58
2019-03-30T23:17:29.303Z,60.70
2019-03-30T23:19:59.668Z,60.76
2019-03-30T23:22:29.981Z,60.83
2019-03-30T23:25:00.398Z,60.88
2019-03-30T23:27:30.807Z,60.99
2019-03-30T23:30:01.135Z,60.94
2019-03-30T23:32:32.580Z,60.90
2019-03-30T23:35:03.498Z,60.86
2019-03-30T23:37:33.797Z,60.79
2019-03-30T23:40:04.624Z,60.72
2019-03-30T23:42:35.550Z,60.59
2019-03-30T23:45:06.466Z,60.59
2019-03-30T23:47:36.847Z,60.53
2019-03-30T23:50:07.388Z,60.43
2019-03-30T23:52:37.843Z,60.39
2019-03-30T23:55:08.402Z,60.33
2019-03-30T23:57:38.901Z,60.20
